You are here:

home

Questo sito é stato creato esclusivamente per valorizzare il lavoro svolto dall' intero
155° Gruppo E.T.S. del' Aeronautica Militare e non ha nessun fine commerciale ne di lucro. 
Pertanto, l' utilizzo delle foto é consentito solo per uso PRIVATO.

 

 
In alto

LIMS - Piacenza, San Damiano

[source: ADDS]
METAR
WX-Data not avlb.
(due to wrong input of icao-codes or 'allow_url_fopen' is OFF [1] and cURL not enabled [1] on this server!)
TAF
TAF LIMS 221400Z 2215/2224 VRB05KT 9999 FEW030 SCT080 =
In alto
WEB MASTER
Paolo "paolopaso" Pasotti
______________________________________
Last Update: 25/02/2011
_____________________________________________________________________________________________________________
© 2010 / 2011 - Tutti i diritti riservati
 
 
In alto